Main page
METAR-TAF:

METAR-TAF

Airports :

Huesca, Spain

Huesca–Pirineos Airport

latitude: 42-04-32N, longitude: 0-18-58W, elevation: 539 m

Current weather observation

The report was made 20 minutes ago, at 03:30 UTC
Wind 4 kt from the West/Northwest
Temperature 9°C
Humidity 66%
Pressure 1022 hPa
Visibility 10 km or more

METAR: LEHC 200330Z AUTO 29004KT 9999 NCD 09/03 Q1022

Time: 05:50 (03:50 UTC)

Forecast

The report was made 1 hour and 50 minutes ago, at 02:00 UTC
Forecast valid from 20 at 03 UTC to 21 at 03 UTC
Wind 4 kt from variable directions
Visibility 10 km or more
Few clouds at a height of 3000 ft

TAF: LEHC 200200Z 2003/2103 VRB04KT 9999 FEW030 TX23/2013Z TN09/2006Z

Weather observations and forecasts of more than 4000 airports (METAR and TAF reports).

The available stations are represented by yellow and red dots on the map.

Hover mouse over dot to see the name of the station.

Then click to see weather observations and forecasts.

To change the map : click on the green buttons with a black cross to zoom in, on the green button with a dash to zoom out, or on the green arrows for adjacent maps.


METAR-TAF: